createdAt,value
2023-05-21T00:00:44.542Z,102404.63
2023-05-21T00:02:46.673Z,102403.78
2023-05-21T00:04:48.445Z,102396.59
2023-05-21T00:06:50.114Z,102393.84
2023-05-21T00:08:51.779Z,102391.34
2023-05-21T00:10:53.371Z,102398.69
2023-05-21T00:12:54.913Z,102388.94
2023-05-21T00:14:56.529Z,102393.59
2023-05-21T00:16:59.786Z,102389.16
2023-05-21T00:19:01.748Z,102391.03
2023-05-21T00:21:03.715Z,102386.59
2023-05-21T00:23:05.519Z,102381.97
2023-05-21T00:25:07.709Z,102385.75
2023-05-21T00:27:10.348Z,102386.59
2023-05-21T00:29:12.222Z,102380.47
2023-05-21T00:31:13.963Z,102379.44
2023-05-21T00:33:17.001Z,102373.13
2023-05-21T00:35:18.624Z,102375.00
2023-05-21T00:37:20.439Z,102372.44
2023-05-21T00:39:21.988Z,102370.56
2023-05-21T00:41:24.017Z,102380.88
2023-05-21T00:43:25.682Z,102368.22
2023-05-21T00:45:27.382Z,102379.34
2023-05-21T00:47:29.081Z,102369.47
2023-05-21T00:49:32.871Z,102365.19
2023-05-21T00:51:34.495Z,102371.72
2023-05-21T00:53:36.889Z,102372.75
2023-05-21T00:55:38.806Z,102363.06
2023-05-21T00:57:41.478Z,102360.50
2023-05-21T00:59:44.278Z,102366.13
2023-05-21T01:01:46.269Z,102362.75
2023-05-21T01:03:48.013Z,102356.44
2023-05-21T01:05:53.968Z,102358.31
2023-05-21T01:07:57.484Z,102347.59
2023-05-21T01:09:59.436Z,102354.09
2023-05-21T01:12:01.934Z,102356.13
2023-05-21T01:14:07.900Z,102354.47
2023-05-21T01:16:10.533Z,102358.22
2023-05-21T01:18:13.341Z,102358.41
2023-05-21T01:20:16.231Z,102353.13
2023-05-21T01:22:22.068Z,102357.75
2023-05-21T01:24:25.372Z,102356.06
2023-05-21T01:26:26.967Z,102356.91
2023-05-21T01:28:28.544Z,102356.06
2023-05-21T01:30:30.475Z,102347.84
2023-05-21T01:32:37.930Z,102349.72
2023-05-21T01:34:51.106Z,102357.06
2023-05-21T01:37:00.050Z,102351.81
2023-05-21T01:39:08.204Z,102345.50
2023-05-21T01:41:14.164Z,102344.47
2023-05-21T01:43:17.390Z,102342.75
2023-05-21T01:45:21.047Z,102341.72
2023-05-21T01:47:26.132Z,102341.72
2023-05-21T01:49:30.422Z,102339.84
2023-05-21T01:51:32.631Z,102339.00
2023-05-21T01:53:35.053Z,102339.00
2023-05-21T01:55:37.015Z,102332.69
2023-05-21T01:57:40.176Z,102340.88
2023-05-21T01:59:41.853Z,102344.47
2023-05-21T02:01:43.527Z,102331.66
2023-05-21T02:03:45.239Z,102331.66
2023-05-21T02:05:47.228Z,102329.94
2023-05-21T02:07:50.380Z,102331.66
2023-05-21T02:09:52.285Z,102331.66
2023-05-21T02:11:54.139Z,102328.72
2023-05-21T02:13:57.519Z,102323.91
2023-05-21T02:15:59.259Z,102323.91
2023-05-21T02:18:00.922Z,102323.72
2023-05-21T02:20:03.533Z,102319.09
2023-05-21T02:22:05.373Z,102319.78
2023-05-21T02:24:07.151Z,102310.50
2023-05-21T02:26:08.965Z,102313.06
2023-05-21T02:28:10.627Z,102308.47
2023-05-21T02:30:15.917Z,102307.41
2023-05-21T02:32:17.500Z,102314.56
2023-05-21T02:34:19.229Z,102309.94
2023-05-21T02:36:20.836Z,102307.22
2023-05-21T02:38:22.648Z,102312.50
2023-05-21T02:40:24.511Z,102320.50
2023-05-21T02:42:26.472Z,102307.69
2023-05-21T02:44:28.305Z,102309.41
2023-05-21T02:46:31.404Z,102311.09
2023-05-21T02:48:33.229Z,102306.44
2023-05-21T02:50:34.916Z,102309.84
2023-05-21T02:52:36.605Z,102302.31
2023-05-21T02:54:38.294Z,102297.69
2023-05-21T02:56:40.079Z,102300.25
2023-05-21T02:58:41.682Z,102299.22
2023-05-21T03:00:43.334Z,102297.13
2023-05-21T03:02:46.932Z,102297.13
2023-05-21T03:04:48.618Z,102294.22
2023-05-21T03:06:50.360Z,102292.13
2023-05-21T03:08:52.042Z,102292.97
2023-05-21T03:10:53.665Z,102294.66
2023-05-21T03:12:55.498Z,102292.75
2023-05-21T03:14:57.093Z,102288.13
2023-05-21T03:16:59.029Z,102284.38
2023-05-21T03:19:02.234Z,102281.63
2023-05-21T03:21:04.558Z,102285.22
2023-05-21T03:23:06.318Z,102281.63
2023-05-21T03:25:08.899Z,102278.72
2023-05-21T03:27:10.584Z,102282.28
2023-05-21T03:29:13.630Z,102279.38
2023-05-21T03:31:15.623Z,102278.34
2023-05-21T03:33:17.363Z,102279.19
2023-05-21T03:35:20.520Z,102285.31
2023-05-21T03:37:23.679Z,102277.09
2023-05-21T03:39:25.573Z,102281.31
2023-05-21T03:41:27.429Z,102278.41
2023-05-21T03:43:29.002Z,102275.66
2023-05-21T03:45:30.770Z,102278.22
2023-05-21T03:47:32.477Z,102271.69
2023-05-21T03:49:34.251Z,102274.72
2023-05-21T03:51:37.258Z,102269.06
2023-05-21T03:53:38.866Z,102270.72
2023-05-21T03:55:40.587Z,102271.41
2023-05-21T03:57:42.919Z,102272.03
2023-05-21T03:59:44.536Z,102273.75
2023-05-21T04:01:46.256Z,102277.97
2023-05-21T04:03:48.181Z,102272.31
2023-05-21T04:05:50.057Z,102270.22
2023-05-21T04:07:53.198Z,102275.50
2023-05-21T04:09:55.093Z,102275.97
2023-05-21T04:11:57.243Z,102276.44
2023-05-21T04:13:58.876Z,102272.44
2023-05-21T04:16:00.521Z,102271.00
2023-05-21T04:18:02.352Z,102277.78
2023-05-21T04:20:04.659Z,102279.09
2023-05-21T04:22:06.619Z,102277.84
2023-05-21T04:24:09.642Z,102277.09
2023-05-21T04:26:11.322Z,102279.44
2023-05-21T04:28:12.927Z,102278.00
2023-05-21T04:30:14.684Z,102280.19
2023-05-21T04:32:16.259Z,102279.38
2023-05-21T04:34:18.269Z,102276.91
2023-05-21T04:36:19.884Z,102268.94
2023-05-21T04:38:21.703Z,102278.25
2023-05-21T04:40:25.130Z,102274.91
2023-05-21T04:42:26.922Z,102276.88
2023-05-21T04:44:28.687Z,102269.72
2023-05-21T04:46:30.884Z,102276.09
2023-05-21T04:48:32.660Z,102269.00
2023-05-21T04:50:34.632Z,102266.28
2023-05-21T04:52:36.353Z,102272.66
2023-05-21T04:54:38.018Z,102272.69
2023-05-21T04:56:49.028Z,102271.50
2023-05-21T04:58:51.253Z,102272.56
2023-05-21T05:00:52.862Z,102273.47
2023-05-21T05:02:54.618Z,102273.28
2023-05-21T05:04:56.320Z,102278.16
2023-05-21T05:06:57.999Z,102277.19
2023-05-21T05:08:59.596Z,102280.78
2023-05-21T05:11:01.270Z,102277.88
2023-05-21T05:13:04.211Z,102284.44
2023-05-21T05:15:07.078Z,102272.41
2023-05-21T05:17:08.680Z,102273.28
2023-05-21T05:19:10.475Z,102266.97
2023-05-21T05:21:12.137Z,102270.41
2023-05-21T05:23:14.275Z,102261.50
2023-05-21T05:25:15.896Z,102261.31
2023-05-21T05:27:17.509Z,102257.72
2023-05-21T05:29:21.141Z,102267.66
2023-05-21T05:31:23.099Z,102264.09
2023-05-21T05:33:25.042Z,102266.41
2023-05-21T05:35:26.850Z,102268.13
2023-05-21T05:37:28.583Z,102272.13
2023-05-21T05:39:30.268Z,102265.78
2023-05-21T05:41:32.851Z,102258.84
2023-05-21T05:43:34.778Z,102260.34
2023-05-21T05:45:38.292Z,102260.31
2023-05-21T05:47:40.465Z,102259.25
2023-05-21T05:49:42.133Z,102262.84
2023-05-21T05:51:43.950Z,102266.22
2023-05-21T05:53:45.563Z,102256.06
2023-05-21T05:55:47.687Z,102263.00
2023-05-21T05:57:50.486Z,102259.16
2023-05-21T05:59:52.410Z,102255.13
2023-05-21T06:01:55.459Z,102260.38
2023-05-21T06:03:57.037Z,102253.56
2023-05-21T06:05:58.988Z,102251.44
2023-05-21T06:08:00.599Z,102250.78
2023-05-21T06:10:02.723Z,102256.66
2023-05-21T06:12:05.338Z,102261.66
2023-05-21T06:14:07.503Z,102257.59
2023-05-21T06:16:09.806Z,102255.00
2023-05-21T06:18:12.980Z,102250.88
2023-05-21T06:20:16.472Z,102256.78
2023-05-21T06:22:18.149Z,102260.06
2023-05-21T06:24:19.806Z,102257.66
2023-05-21T06:26:21.815Z,102255.50
2023-05-21T06:28:23.767Z,102255.00
2023-05-21T06:30:25.648Z,102256.19
2023-05-21T06:32:27.547Z,102255.66
2023-05-21T06:34:30.795Z,102251.31
2023-05-21T06:36:32.618Z,102261.38
2023-05-21T06:38:34.499Z,102259.13
2023-05-21T06:40:36.346Z,102264.75
2023-05-21T06:42:38.341Z,102255.09
2023-05-21T06:44:40.220Z,102262.38
2023-05-21T06:46:42.327Z,102256.94
2023-05-21T06:48:45.051Z,102257.84
2023-05-21T06:50:48.282Z,102258.75
2023-05-21T06:52:49.853Z,102258.78
2023-05-21T06:54:51.494Z,102254.38
2023-05-21T06:56:53.136Z,102256.34
2023-05-21T06:58:54.788Z,102267.47
2023-05-21T07:00:56.493Z,102264.94
2023-05-21T07:02:58.939Z,102263.78
2023-05-21T07:05:00.732Z,102262.94
2023-05-21T07:07:04.153Z,102262.13
2023-05-21T07:09:06.082Z,102266.56
2023-05-21T07:11:07.768Z,102261.03
2023-05-21T07:13:09.826Z,102257.41
2023-05-21T07:15:11.784Z,102264.66
2023-05-21T07:17:13.688Z,102256.56
2023-05-21T07:19:15.793Z,102260.16
2023-05-21T07:21:17.629Z,102263.72
2023-05-21T07:23:20.947Z,102258.16
2023-05-21T07:25:22.798Z,102255.34
2023-05-21T07:27:26.259Z,102256.38
2023-05-21T07:29:28.274Z,102251.91
2023-05-21T07:31:30.153Z,102255.75
2023-05-21T07:33:31.779Z,102255.94
2023-05-21T07:35:33.976Z,102242.50
2023-05-21T07:37:35.770Z,102245.69
2023-05-21T07:39:38.838Z,102249.47
2023-05-21T07:41:40.635Z,102248.22
2023-05-21T07:43:42.396Z,102250.00
2023-05-21T07:45:44.131Z,102248.41
2023-05-21T07:47:47.148Z,102250.66
2023-05-21T07:49:49.180Z,102244.84
2023-05-21T07:51:51.073Z,102247.97
2023-05-21T07:53:55.038Z,102247.75
2023-05-21T07:55:58.438Z,102255.81
2023-05-21T07:58:00.336Z,102260.88
2023-05-21T08:00:02.087Z,102253.97
2023-05-21T08:02:03.904Z,102262.03
2023-05-21T08:04:06.457Z,102264.31
2023-05-21T08:06:10.140Z,102268.25
2023-05-21T08:08:11.726Z,102262.69
2023-05-21T08:10:13.431Z,102264.13
2023-05-21T08:12:16.636Z,102262.75
2023-05-21T08:14:18.999Z,102263.38
2023-05-21T08:16:21.001Z,102253.94
2023-05-21T08:18:26.483Z,102256.22
2023-05-21T08:20:28.633Z,102256.25
2023-05-21T08:22:30.274Z,102257.72
2023-05-21T08:24:32.213Z,102263.59
2023-05-21T08:26:34.046Z,102261.47
2023-05-21T08:28:38.219Z,102256.81
2023-05-21T08:30:40.156Z,102268.84
2023-05-21T08:32:42.384Z,102264.78
2023-05-21T08:34:44.041Z,102272.72
2023-05-21T08:36:46.505Z,102265.84
2023-05-21T08:38:48.929Z,102262.59
2023-05-21T08:40:51.599Z,102265.78
2023-05-21T08:42:53.950Z,102269.53
2023-05-21T08:45:00.530Z,102262.41
2023-05-21T08:47:05.796Z,102265.28
2023-05-21T08:49:12.266Z,102264.03
2023-05-21T08:51:14.378Z,102268.06
2023-05-21T08:53:27.257Z,102264.78
2023-05-21T08:55:31.611Z,102256.28
2023-05-21T08:57:33.686Z,102258.31
2023-05-21T08:59:35.757Z,102249.78
2023-05-21T09:01:39.996Z,102249.31
2023-05-21T09:03:43.618Z,102256.16
2023-05-21T09:05:45.614Z,102256.22
2023-05-21T09:07:55.695Z,102248.25
2023-05-21T09:09:58.790Z,102253.91
2023-05-21T09:12:00.464Z,102244.19
2023-05-21T09:14:02.713Z,102244.00
2023-05-21T09:16:06.669Z,102236.81
2023-05-21T09:18:09.879Z,102245.19
2023-05-21T09:20:13.396Z,102240.19
2023-05-21T09:22:15.572Z,102238.81
2023-05-21T09:24:21.533Z,102239.94
2023-05-21T09:26:23.883Z,102243.31
2023-05-21T09:28:25.762Z,102238.28
2023-05-21T09:30:30.194Z,102233.28
2023-05-21T09:32:33.511Z,102235.81
2023-05-21T09:34:37.834Z,102234.72
2023-05-21T09:36:39.517Z,102236.13
2023-05-21T09:38:41.672Z,102231.94
2023-05-21T09:40:46.531Z,102234.44
2023-05-21T09:42:49.831Z,102228.84
2023-05-21T09:44:51.991Z,102233.31
2023-05-21T09:46:57.635Z,102233.03
2023-05-21T09:48:59.481Z,102234.69
2023-05-21T09:51:10.334Z,102238.03
2023-05-21T09:53:12.812Z,102241.97
2023-05-21T09:55:16.565Z,102240.00
2023-05-21T09:57:24.178Z,102240.03
2023-05-21T09:59:35.902Z,102237.22
2023-05-21T10:01:38.444Z,102249.22
2023-05-21T10:03:40.500Z,102239.41
2023-05-21T10:05:42.676Z,102245.28
2023-05-21T10:07:49.980Z,102237.16
2023-05-21T10:09:54.071Z,102244.44
2023-05-21T10:11:57.392Z,102236.31
2023-05-21T10:14:13.957Z,102235.47
2023-05-21T10:16:15.641Z,102232.38
2023-05-21T10:18:20.831Z,102234.00
2023-05-21T10:20:22.859Z,102223.09
2023-05-21T10:22:25.850Z,102227.28
2023-05-21T10:24:29.487Z,102225.84
2023-05-21T10:26:31.939Z,102223.56
2023-05-21T10:28:34.155Z,102231.38
2023-05-21T10:30:37.886Z,102229.94
2023-05-21T10:32:40.885Z,102223.16
2023-05-21T10:34:43.832Z,102232.03
2023-05-21T10:36:48.935Z,102226.38
2023-05-21T10:38:51.553Z,102222.66
2023-05-21T10:40:55.820Z,102224.59
2023-05-21T10:43:35.796Z,102235.69
2023-05-21T10:45:53.547Z,102226.16
2023-05-21T10:48:09.226Z,102226.09
2023-05-21T10:50:31.404Z,102229.44
2023-05-21T10:52:50.379Z,102224.44
2023-05-21T10:55:07.612Z,102227.53
2023-05-21T10:57:23.149Z,102225.59
2023-05-21T10:59:40.072Z,102218.34
2023-05-21T11:01:42.659Z,102215.53
2023-05-21T11:03:45.012Z,102218.91
2023-05-21T11:05:53.144Z,102218.63
2023-05-21T11:07:58.463Z,102207.69
2023-05-21T11:10:30.291Z,102211.81
2023-05-21T11:12:36.590Z,102207.81
2023-05-21T11:14:39.665Z,102199.41
2023-05-21T11:16:46.012Z,102203.91
2023-05-21T11:19:03.284Z,102199.13
2023-05-21T11:21:06.101Z,102201.69
2023-05-21T11:23:07.735Z,102199.13
2023-05-21T11:25:10.096Z,102191.25
2023-05-21T11:27:12.106Z,102186.75
2023-05-21T11:29:15.854Z,102191.47
2023-05-21T11:31:24.333Z,102191.97
2023-05-21T11:33:26.450Z,102191.63
2023-05-21T11:35:28.094Z,102187.66
2023-05-21T11:37:34.267Z,102188.66
2023-05-21T11:39:39.655Z,102194.97
2023-05-21T11:41:58.122Z,102194.31
2023-05-21T11:44:01.438Z,102187.59
2023-05-21T11:46:06.160Z,102201.00
2023-05-21T11:48:14.981Z,102198.16
2023-05-21T11:50:17.612Z,102186.63
2023-05-21T11:52:19.439Z,102190.88
2023-05-21T11:54:21.047Z,102193.16
2023-05-21T11:56:23.231Z,102191.47
2023-05-21T11:58:25.185Z,102190.09
2023-05-21T12:00:27.048Z,102197.72
2023-05-21T12:02:31.235Z,102197.78
2023-05-21T12:04:34.214Z,102203.16
2023-05-21T12:06:35.753Z,102196.19
2023-05-21T12:08:37.401Z,102193.13
2023-05-21T12:10:39.063Z,102202.97
2023-05-21T12:12:53.861Z,102191.81
2023-05-21T12:14:56.133Z,102193.31
2023-05-21T12:16:58.052Z,102196.75
2023-05-21T12:19:02.102Z,102201.00
2023-05-21T12:21:04.971Z,102196.34
2023-05-21T12:23:06.571Z,102190.53
2023-05-21T12:25:09.386Z,102187.56
2023-05-21T12:27:11.762Z,102184.22
2023-05-21T12:29:14.291Z,102188.78
2023-05-21T12:31:15.995Z,102187.47
2023-05-21T12:33:18.856Z,102192.28
2023-05-21T12:35:25.563Z,102191.19
2023-05-21T12:37:29.135Z,102194.91
2023-05-21T12:39:31.666Z,102188.81
2023-05-21T12:41:33.342Z,102193.31
2023-05-21T12:43:34.984Z,102195.84
2023-05-21T12:45:38.687Z,102195.00
2023-05-21T12:47:40.473Z,102197.81
2023-05-21T12:49:44.023Z,102197.81
2023-05-21T12:51:47.120Z,102191.63
2023-05-21T12:53:49.184Z,102189.66
2023-05-21T12:55:50.844Z,102193.25
2023-05-21T12:58:01.703Z,102191.78
2023-05-21T13:00:05.271Z,102190.94
2023-05-21T13:02:06.990Z,102187.53
2023-05-21T13:04:10.047Z,102181.66
2023-05-21T13:06:13.220Z,102186.69
2023-05-21T13:08:16.365Z,102183.06
2023-05-21T13:10:18.519Z,102186.69
2023-05-21T13:12:21.798Z,102181.66
2023-05-21T13:14:23.764Z,102184.16
2023-05-21T13:16:25.550Z,102183.28
2023-05-21T13:18:27.309Z,102181.88
2023-05-21T13:20:29.285Z,102182.44
2023-05-21T13:22:31.131Z,102176.53
2023-05-21T13:24:34.617Z,102173.47
2023-05-21T13:26:36.539Z,102168.97
2023-05-21T13:28:39.487Z,102168.34
2023-05-21T13:30:41.939Z,102162.34
2023-05-21T13:32:44.399Z,102161.41
2023-05-21T13:34:46.463Z,102156.00
2023-05-21T13:36:48.205Z,102158.44
2023-05-21T13:38:49.816Z,102145.53
2023-05-21T13:40:52.915Z,102153.94
2023-05-21T13:42:54.609Z,102150.00
2023-05-21T13:44:56.255Z,102147.22
2023-05-21T13:46:58.234Z,102149.75
2023-05-21T13:48:59.978Z,102139.38
2023-05-21T13:51:01.933Z,102135.44
2023-05-21T13:53:03.821Z,102150.28
2023-05-21T13:55:07.024Z,102137.41
2023-05-21T13:57:10.450Z,102138.00
2023-05-21T13:59:12.016Z,102139.44
2023-05-21T14:01:14.122Z,102138.88
2023-05-21T14:03:16.090Z,102142.00
2023-05-21T14:05:18.188Z,102149.00
2023-05-21T14:07:20.164Z,102144.56
2023-05-21T14:09:22.170Z,102144.84
2023-05-21T14:11:23.873Z,102145.97
2023-05-21T14:13:26.764Z,102139.25
2023-05-21T14:15:28.461Z,102138.72
2023-05-21T14:17:30.129Z,102134.25
2023-05-21T14:19:32.272Z,102134.25
2023-05-21T14:21:34.123Z,102132.81
2023-05-21T14:23:35.767Z,102130.56
2023-05-21T14:25:38.045Z,102133.59
2023-05-21T14:27:39.921Z,102127.09
2023-05-21T14:29:43.146Z,102123.72
2023-05-21T14:31:44.956Z,102128.44
2023-05-21T14:33:46.720Z,102127.31
2023-05-21T14:35:49.135Z,102132.63
2023-05-21T14:37:51.252Z,102131.78
2023-05-21T14:39:53.112Z,102127.03
2023-05-21T14:41:54.797Z,102130.72
2023-05-21T14:43:56.432Z,102132.53
2023-05-21T14:45:59.505Z,102132.88
2023-05-21T14:48:01.749Z,102134.91
2023-05-21T14:50:03.688Z,102135.88
2023-05-21T14:52:06.027Z,102135.97
2023-05-21T14:54:07.852Z,102136.56
2023-05-21T14:56:09.933Z,102136.34
2023-05-21T14:58:11.888Z,102141.75
2023-05-21T15:00:14.517Z,102139.81
2023-05-21T15:02:17.855Z,102136.75
2023-05-21T15:04:19.796Z,102146.56
2023-05-21T15:06:21.491Z,102135.41
2023-05-21T15:08:23.189Z,102138.81
2023-05-21T15:10:26.172Z,102136.00
2023-05-21T15:12:28.223Z,102129.31
2023-05-21T15:14:29.897Z,102129.34
2023-05-21T15:16:31.854Z,102121.81
2023-05-21T15:18:34.973Z,102122.41
2023-05-21T15:20:36.675Z,102118.53
2023-05-21T15:22:38.389Z,102117.47
2023-05-21T15:24:40.257Z,102120.59
2023-05-21T15:26:41.962Z,102115.31
2023-05-21T15:28:43.669Z,102124.00
2023-05-21T15:30:47.995Z,102123.50
2023-05-21T15:32:49.702Z,102113.19
2023-05-21T15:34:52.845Z,102111.22
2023-05-21T15:36:54.487Z,102110.44
2023-05-21T15:38:56.154Z,102110.41
2023-05-21T15:40:57.790Z,102115.19
2023-05-21T15:42:59.438Z,102112.13
2023-05-21T15:45:01.484Z,102112.69
2023-05-21T15:47:03.731Z,102114.66
2023-05-21T15:49:05.451Z,102113.53
2023-05-21T15:51:08.424Z,102112.16
2023-05-21T15:53:10.994Z,102108.00
2023-05-21T15:55:12.910Z,102102.72
2023-05-21T15:57:15.038Z,102114.75
2023-05-21T15:59:16.989Z,102116.97
2023-05-21T16:01:18.981Z,102116.94
2023-05-21T16:03:20.747Z,102115.81
2023-05-21T16:05:23.870Z,102115.84
2023-05-21T16:07:27.298Z,102112.22
2023-05-21T16:09:31.084Z,102110.25
2023-05-21T16:11:33.344Z,102108.00
2023-05-21T16:13:35.035Z,102109.09
2023-05-21T16:15:37.041Z,102111.56
2023-05-21T16:17:39.125Z,102106.50
2023-05-21T16:19:40.681Z,102108.19
2023-05-21T16:21:42.499Z,102107.03
2023-05-21T16:23:46.027Z,102105.91
2023-05-21T16:25:47.858Z,102107.00
2023-05-21T16:27:52.664Z,102107.56
2023-05-21T16:29:56.489Z,102113.69
2023-05-21T16:31:58.177Z,102109.47
2023-05-21T16:33:59.868Z,102104.97
2023-05-21T16:36:01.790Z,102113.31
2023-05-21T16:38:03.589Z,102105.16
2023-05-21T16:40:08.421Z,102097.34
2023-05-21T16:42:10.573Z,102107.88
2023-05-21T16:44:12.431Z,102101.41
2023-05-21T16:46:15.338Z,102096.91
2023-05-21T16:48:17.263Z,102094.63
2023-05-21T16:50:21.185Z,102092.91
2023-05-21T16:52:24.083Z,102093.13
2023-05-21T16:54:27.058Z,102097.84
2023-05-21T16:56:31.379Z,102097.75
2023-05-21T16:58:33.438Z,102097.69
2023-05-21T17:00:35.770Z,102098.78
2023-05-21T17:02:38.468Z,102102.63
2023-05-21T17:04:40.117Z,102102.56
2023-05-21T17:06:41.793Z,102103.38
2023-05-21T17:08:43.344Z,102105.59
2023-05-21T17:10:45.124Z,102106.63
2023-05-21T17:12:48.192Z,102106.00
2023-05-21T17:14:49.936Z,102102.59
2023-05-21T17:16:53.748Z,102107.00
2023-05-21T17:18:55.743Z,102109.75
2023-05-21T17:20:58.228Z,102106.66
2023-05-21T17:22:59.909Z,102104.66
2023-05-21T17:25:01.591Z,102111.59
2023-05-21T17:27:03.798Z,102104.00
2023-05-21T17:29:07.011Z,102103.69
2023-05-21T17:31:09.197Z,102101.16
2023-05-21T17:33:11.160Z,102103.06
2023-05-21T17:35:13.120Z,102102.16
2023-05-21T17:37:17.379Z,102105.97
2023-05-21T17:39:19.492Z,102104.22
2023-05-21T17:41:21.510Z,102101.41
2023-05-21T17:43:25.569Z,102101.31
2023-05-21T17:45:28.543Z,102105.16
2023-05-21T17:47:30.159Z,102106.75
2023-05-21T17:49:32.013Z,102098.63
2023-05-21T17:51:33.936Z,102100.75
2023-05-21T17:53:35.534Z,102104.31
2023-05-21T17:55:37.410Z,102101.69
2023-05-21T17:57:40.874Z,102100.53
2023-05-21T17:59:42.723Z,102105.13
2023-05-21T18:01:46.237Z,102101.47
2023-05-21T18:03:47.878Z,102102.22
2023-05-21T18:05:49.730Z,102092.16
2023-05-21T18:07:51.394Z,102095.69
2023-05-21T18:09:53.060Z,102103.69
2023-05-21T18:11:54.876Z,102098.31
2023-05-21T18:13:57.445Z,102103.50
2023-05-21T18:15:59.191Z,102097.91
2023-05-21T18:18:02.701Z,102103.88
2023-05-21T18:20:05.400Z,102104.03
2023-05-21T18:22:07.902Z,102105.63
2023-05-21T18:24:09.601Z,102101.91
2023-05-21T18:26:11.485Z,102110.13
2023-05-21T18:28:13.410Z,102099.81
2023-05-21T18:32:17.103Z,102106.50
2023-05-21T18:34:20.727Z,102109.19
2023-05-21T18:36:22.581Z,102105.22
2023-05-21T18:38:24.389Z,102108.75
2023-05-21T18:40:26.765Z,102109.47
2023-05-21T18:42:29.567Z,102109.41
2023-05-21T18:44:31.102Z,102108.72
2023-05-21T18:46:33.460Z,102112.47
2023-05-21T18:48:35.221Z,102105.16
2023-05-21T18:50:38.713Z,102109.75
2023-05-21T18:52:41.014Z,102112.41
2023-05-21T18:54:42.591Z,102111.47
2023-05-21T18:56:44.305Z,102105.81
2023-05-21T18:58:45.982Z,102103.78
2023-05-21T19:00:47.840Z,102110.03
2023-05-21T19:02:49.589Z,102107.16
2023-05-21T19:04:51.511Z,102105.63
2023-05-21T19:06:54.808Z,102093.84
2023-05-21T19:08:56.370Z,102098.44
2023-05-21T19:10:58.273Z,102100.22
2023-05-21T19:12:59.866Z,102097.38
2023-05-21T19:15:01.965Z,102097.50
2023-05-21T19:17:04.282Z,102100.38
2023-05-21T19:19:07.225Z,102100.50
2023-05-21T19:21:08.871Z,102093.78
2023-05-21T19:23:11.895Z,102095.59
2023-05-21T19:25:13.986Z,102102.44
2023-05-21T19:27:15.879Z,102100.13
2023-05-21T19:29:17.471Z,102101.44
2023-05-21T19:31:19.626Z,102098.31
2023-05-21T19:33:21.350Z,102096.28
2023-05-21T19:35:23.234Z,102102.50
2023-05-21T19:37:25.145Z,102092.78
2023-05-21T19:39:30.685Z,102093.28
2023-05-21T19:41:32.390Z,102102.06
2023-05-21T19:43:35.072Z,102098.06
2023-05-21T19:45:36.944Z,102090.00
2023-05-21T19:47:38.652Z,102093.50
2023-05-21T19:49:40.305Z,102095.88
2023-05-21T19:51:42.148Z,102098.06
2023-05-21T19:53:44.035Z,102096.63
2023-05-21T19:55:47.434Z,102100.09
2023-05-21T19:57:49.106Z,102101.41
2023-05-21T19:59:50.729Z,102094.44
2023-05-21T20:01:52.381Z,102100.19
2023-05-21T20:03:53.957Z,102095.97
2023-05-21T20:05:55.596Z,102098.16
2023-05-21T20:07:58.810Z,102099.47
2023-05-21T20:10:02.734Z,102108.81
2023-05-21T20:12:06.885Z,102106.53
2023-05-21T20:14:08.483Z,102110.38
2023-05-21T20:16:10.185Z,102108.94
2023-05-21T20:18:12.145Z,102106.38
2023-05-21T20:20:14.262Z,102110.47
2023-05-21T20:22:15.934Z,102106.50
2023-05-21T20:24:17.556Z,102108.63
2023-05-21T20:26:19.394Z,102107.19
2023-05-21T20:28:23.082Z,102108.53
2023-05-21T20:30:31.979Z,102103.22
2023-05-21T20:32:34.082Z,102107.25
2023-05-21T20:34:36.015Z,102094.75
2023-05-21T20:36:38.245Z,102093.31
2023-05-21T20:38:39.851Z,102096.31
2023-05-21T20:40:42.176Z,102094.00
2023-05-21T20:42:43.799Z,102085.13
2023-05-21T20:44:46.814Z,102091.97
2023-05-21T20:46:48.636Z,102100.47
2023-05-21T20:48:50.342Z,102090.75
2023-05-21T20:50:52.179Z,102088.47
2023-05-21T20:52:53.799Z,102093.38
2023-05-21T20:54:55.707Z,102093.59
2023-05-21T20:56:57.332Z,102098.50
2023-05-21T20:58:58.988Z,102108.09
2023-05-21T21:01:02.395Z,102102.81
2023-05-21T21:03:04.331Z,102104.97
2023-05-21T21:05:06.919Z,102106.25
2023-05-21T21:07:08.769Z,102108.41
2023-05-21T21:09:10.650Z,102106.13
2023-05-21T21:11:12.917Z,102109.34
2023-05-21T21:13:15.001Z,102107.88
2023-05-21T21:15:16.619Z,102108.13
2023-05-21T21:17:19.838Z,102107.50
2023-05-21T21:19:21.573Z,102098.63
2023-05-21T21:21:23.312Z,102105.44
2023-05-21T21:23:25.474Z,102093.78
2023-05-21T21:25:27.034Z,102096.78
2023-05-21T21:27:28.862Z,102113.78
2023-05-21T21:29:30.732Z,102101.91
2023-05-21T21:31:32.373Z,102108.53
2023-05-21T21:33:35.456Z,102105.97
2023-05-21T21:35:39.798Z,102104.28
2023-05-21T21:37:41.699Z,102105.38
2023-05-21T21:39:43.539Z,102107.28
2023-05-21T21:41:45.495Z,102104.75
2023-05-21T21:43:47.159Z,102109.88
2023-05-21T21:45:49.700Z,102106.53
2023-05-21T21:47:51.355Z,102106.16
2023-05-21T21:49:54.605Z,102104.91
2023-05-21T21:51:56.500Z,102100.09
2023-05-21T21:53:59.900Z,102110.69
2023-05-21T21:56:01.785Z,102108.81
2023-05-21T21:58:03.479Z,102110.13
2023-05-21T22:00:06.189Z,102111.06
2023-05-21T22:02:08.505Z,102110.03
2023-05-21T22:04:10.125Z,102113.72
2023-05-21T22:06:13.336Z,102114.16
2023-05-21T22:08:15.006Z,102117.59
2023-05-21T22:10:17.982Z,102110.84
2023-05-21T22:12:19.655Z,102106.84
2023-05-21T22:14:21.286Z,102107.53
2023-05-21T22:16:23.020Z,102111.81
2023-05-21T22:18:38.874Z,102116.31
2023-05-21T22:20:41.878Z,102110.63
2023-05-21T22:22:45.168Z,102103.06
2023-05-21T22:24:46.842Z,102107.06
2023-05-21T22:26:48.536Z,102109.22
2023-05-21T22:28:50.708Z,102105.03
2023-05-21T22:30:52.330Z,102101.63
2023-05-21T22:32:54.236Z,102103.53
2023-05-21T22:34:56.141Z,102096.56
2023-05-21T22:36:57.993Z,102100.38
2023-05-21T22:39:01.033Z,102101.44
2023-05-21T22:41:02.868Z,102097.25
2023-05-21T22:43:04.976Z,102099.59
2023-05-21T22:45:08.108Z,102100.91
2023-05-21T22:47:09.837Z,102097.75
2023-05-21T22:49:11.533Z,102098.38
2023-05-21T22:51:13.278Z,102103.22
2023-05-21T22:53:15.047Z,102101.56
2023-05-21T22:55:18.208Z,102096.53
2023-05-21T22:57:20.583Z,102099.69
2023-05-21T22:59:22.198Z,102104.59
2023-05-21T23:01:24.286Z,102101.44
2023-05-21T23:03:26.038Z,102094.69
2023-05-21T23:05:27.905Z,102096.81
2023-05-21T23:07:29.624Z,102089.00
2023-05-21T23:09:31.281Z,102089.44
2023-05-21T23:11:34.873Z,102091.56
2023-05-21T23:13:38.879Z,102089.28
2023-05-21T23:15:42.270Z,102082.94
2023-05-21T23:17:44.166Z,102086.94
2023-05-21T23:19:46.083Z,102080.63
2023-05-21T23:21:47.921Z,102088.88
2023-05-21T23:23:49.570Z,102086.31